sensor_id;sensor_type;location;lat;lon;timestamp;pressure;altitude;pressure_sealevel;temperature;humidity
81181;BME280;70650;51.408;7.132;2024-03-08T00:00:18;100539.53;;;2.61;72.21
81181;BME280;70650;51.408;7.132;2024-03-08T00:02:47;100545.59;;;2.62;72.37
81181;BME280;70650;51.408;7.132;2024-03-08T00:05:13;100532.66;;;2.56;72.25
81181;BME280;70650;51.408;7.132;2024-03-08T00:07:39;100528.31;;;2.56;72.51
81181;BME280;70650;51.408;7.132;2024-03-08T00:10:06;100531.00;;;2.52;72.31
81181;BME280;70650;51.408;7.132;2024-03-08T00:12:32;100534.44;;;2.55;72.13
81181;BME280;70650;51.408;7.132;2024-03-08T00:14:58;100527.38;;;2.59;72.10
81181;BME280;70650;51.408;7.132;2024-03-08T00:17:24;100530.97;;;2.53;72.29
81181;BME280;70650;51.408;7.132;2024-03-08T00:19:50;100531.81;;;2.54;72.31
81181;BME280;70650;51.408;7.132;2024-03-08T00:22:16;100525.81;;;2.49;72.28
81181;BME280;70650;51.408;7.132;2024-03-08T00:24:41;100524.97;;;2.48;72.41
81181;BME280;70650;51.408;7.132;2024-03-08T00:27:07;100520.72;;;2.44;72.38
81181;BME280;70650;51.408;7.132;2024-03-08T00:29:34;100518.09;;;2.44;72.55
81181;BME280;70650;51.408;7.132;2024-03-08T00:31:59;100516.34;;;2.43;72.70
81181;BME280;70650;51.408;7.132;2024-03-08T00:34:25;100522.44;;;2.44;73.14
81181;BME280;70650;51.408;7.132;2024-03-08T00:36:50;100517.22;;;2.44;72.51
81181;BME280;70650;51.408;7.132;2024-03-08T00:39:16;100520.59;;;2.49;72.79
81181;BME280;70650;51.408;7.132;2024-03-08T00:41:42;100517.97;;;2.50;72.53
81181;BME280;70650;51.408;7.132;2024-03-08T00:44:09;100514.56;;;2.47;73.04
81181;BME280;70650;51.408;7.132;2024-03-08T00:46:35;100504.03;;;2.51;72.26
81181;BME280;70650;51.408;7.132;2024-03-08T00:49:00;100512.66;;;2.55;72.54
81181;BME280;70650;51.408;7.132;2024-03-08T00:51:26;100507.47;;;2.53;71.88
81181;BME280;70650;51.408;7.132;2024-03-08T00:53:51;100501.50;;;2.47;72.83
81181;BME280;70650;51.408;7.132;2024-03-08T00:56:17;100498.91;;;2.47;72.25
81181;BME280;70650;51.408;7.132;2024-03-08T00:58:42;100501.53;;;2.44;73.05
81181;BME280;70650;51.408;7.132;2024-03-08T01:01:07;100494.72;;;2.36;73.02
81181;BME280;70650;51.408;7.132;2024-03-08T01:03:34;100494.69;;;2.38;72.86
81181;BME280;70650;51.408;7.132;2024-03-08T01:06:00;100486.78;;;2.43;72.45
81181;BME280;70650;51.408;7.132;2024-03-08T01:08:28;100486.69;;;2.47;72.82
81181;BME280;70650;51.408;7.132;2024-03-08T01:10:54;100486.19;;;2.28;73.45
81181;BME280;70650;51.408;7.132;2024-03-08T01:13:20;100481.88;;;2.26;73.46
81181;BME280;70650;51.408;7.132;2024-03-08T01:15:46;100477.59;;;2.23;73.30
81181;BME280;70650;51.408;7.132;2024-03-08T01:18:11;100474.09;;;2.24;73.57
81181;BME280;70650;51.408;7.132;2024-03-08T01:20:37;100472.19;;;2.32;73.16
81181;BME280;70650;51.408;7.132;2024-03-08T01:23:03;100474.88;;;2.29;73.22
81181;BME280;70650;51.408;7.132;2024-03-08T01:25:32;100463.56;;;2.29;73.32
81181;BME280;70650;51.408;7.132;2024-03-08T01:27:58;100460.16;;;2.25;73.54
81181;BME280;70650;51.408;7.132;2024-03-08T01:30:23;100463.56;;;2.29;73.14
81181;BME280;70650;51.408;7.132;2024-03-08T01:32:48;100459.25;;;2.28;73.30
81181;BME280;70650;51.408;7.132;2024-03-08T01:35:14;100450.75;;;2.15;73.97
81181;BME280;70650;51.408;7.132;2024-03-08T01:37:39;100446.50;;;2.11;73.70
81181;BME280;70650;51.408;7.132;2024-03-08T01:40:05;100446.50;;;2.09;74.09
81181;BME280;70650;51.408;7.132;2024-03-08T01:42:32;100441.28;;;2.11;74.65
81181;BME280;70650;51.408;7.132;2024-03-08T01:44:57;100434.44;;;2.04;74.10
81181;BME280;70650;51.408;7.132;2024-03-08T01:47:22;100424.94;;;2.01;74.21
81181;BME280;70650;51.408;7.132;2024-03-08T01:49:51;100429.22;;;2.04;74.25
81181;BME280;70650;51.408;7.132;2024-03-08T01:52:17;100435.31;;;2.03;74.34
81181;BME280;70650;51.408;7.132;2024-03-08T01:54:47;100436.97;;;2.08;73.90
81181;BME280;70650;51.408;7.132;2024-03-08T01:57:13;100426.53;;;2.08;74.29
81181;BME280;70650;51.408;7.132;2024-03-08T01:59:40;100429.19;;;2.07;74.39
81181;BME280;70650;51.408;7.132;2024-03-08T02:02:08;100425.88;;;1.99;74.63
81181;BME280;70650;51.408;7.132;2024-03-08T02:04:34;100418.97;;;1.95;74.39
81181;BME280;70650;51.408;7.132;2024-03-08T02:06:59;100421.50;;;1.99;75.06
81181;BME280;70650;51.408;7.132;2024-03-08T02:09:25;100418.84;;;2.01;74.51
81181;BME280;70650;51.408;7.132;2024-03-08T02:11:51;100416.28;;;1.99;74.69
81181;BME280;70650;51.408;7.132;2024-03-08T02:14:19;100416.38;;;1.95;74.38
81181;BME280;70650;51.408;7.132;2024-03-08T02:16:45;100415.63;;;1.88;75.24
81181;BME280;70650;51.408;7.132;2024-03-08T02:19:10;100414.75;;;1.86;75.06
81181;BME280;70650;51.408;7.132;2024-03-08T02:21:35;100407.88;;;1.83;75.58
81181;BME280;70650;51.408;7.132;2024-03-08T02:24:02;100408.41;;;2.02;74.33
81181;BME280;70650;51.408;7.132;2024-03-08T02:26:28;100402.41;;;1.97;74.57
81181;BME280;70650;51.408;7.132;2024-03-08T02:28:53;100401.53;;;1.97;74.52
81181;BME280;70650;51.408;7.132;2024-03-08T02:31:19;100400.69;;;1.96;74.73
81181;BME280;70650;51.408;7.132;2024-03-08T02:33:44;100399.00;;;1.92;75.12
81181;BME280;70650;51.408;7.132;2024-03-08T02:36:12;100395.59;;;1.90;74.99
81181;BME280;70650;51.408;7.132;2024-03-08T02:38:38;100397.28;;;1.91;75.21
81181;BME280;70650;51.408;7.132;2024-03-08T02:41:03;100391.34;;;1.84;75.12
81181;BME280;70650;51.408;7.132;2024-03-08T02:43:29;100387.91;;;1.81;75.12
81181;BME280;70650;51.408;7.132;2024-03-08T02:45:54;100389.78;;;1.74;75.72
81181;BME280;70650;51.408;7.132;2024-03-08T02:48:19;100382.13;;;1.64;76.12
81181;BME280;70650;51.408;7.132;2024-03-08T02:50:47;100377.69;;;1.70;76.12
81181;BME280;70650;51.408;7.132;2024-03-08T02:53:12;100379.63;;;1.57;76.19
81181;BME280;70650;51.408;7.132;2024-03-08T02:55:39;100384.72;;;1.65;75.88
81181;BME280;70650;51.408;7.132;2024-03-08T02:58:05;100383.84;;;1.66;76.54
81181;BME280;70650;51.408;7.132;2024-03-08T03:00:33;100373.44;;;1.63;76.42
81181;BME280;70650;51.408;7.132;2024-03-08T03:02:59;100378.66;;;1.63;76.77
81181;BME280;70650;51.408;7.132;2024-03-08T03:05:24;100370.91;;;1.58;76.68
81181;BME280;70650;51.408;7.132;2024-03-08T03:07:50;100368.28;;;1.62;76.61
81181;BME280;70650;51.408;7.132;2024-03-08T03:10:16;100368.31;;;1.60;76.73
81181;BME280;70650;51.408;7.132;2024-03-08T03:12:43;100354.47;;;1.56;76.66
81181;BME280;70650;51.408;7.132;2024-03-08T03:15:08;100346.72;;;1.53;76.54
81181;BME280;70650;51.408;7.132;2024-03-08T03:17:35;100356.13;;;1.61;76.67
81181;BME280;70650;51.408;7.132;2024-03-08T03:20:00;100355.28;;;1.60;76.25
81181;BME280;70650;51.408;7.132;2024-03-08T03:22:35;100347.50;;;1.57;76.68
81181;BME280;70650;51.408;7.132;2024-03-08T03:25:02;100349.34;;;1.50;76.70
81181;BME280;70650;51.408;7.132;2024-03-08T03:27:29;100345.00;;;1.51;77.84
81181;BME280;70650;51.408;7.132;2024-03-08T03:29:55;100345.88;;;1.51;76.97
81181;BME280;70650;51.408;7.132;2024-03-08T03:32:22;100343.22;;;1.53;76.84
81181;BME280;70650;51.408;7.132;2024-03-08T03:34:48;100339.91;;;1.45;76.92
81181;BME280;70650;51.408;7.132;2024-03-08T03:37:18;100340.72;;;1.48;77.73
81181;BME280;70650;51.408;7.132;2024-03-08T03:39:44;100333.78;;;1.46;77.67
81181;BME280;70650;51.408;7.132;2024-03-08T03:42:19;100336.38;;;1.49;77.28
81181;BME280;70650;51.408;7.132;2024-03-08T03:44:47;100341.72;;;1.40;77.71
81181;BME280;70650;51.408;7.132;2024-03-08T03:47:15;100326.09;;;1.40;77.33
81181;BME280;70650;51.408;7.132;2024-03-08T03:49:41;100333.88;;;1.43;77.74
81181;BME280;70650;51.408;7.132;2024-03-08T03:52:06;100341.72;;;1.40;77.48
81181;BME280;70650;51.408;7.132;2024-03-08T03:54:32;100335.50;;;1.48;77.58
81181;BME280;70650;51.408;7.132;2024-03-08T03:56:59;100330.47;;;1.38;78.19
81181;BME280;70650;51.408;7.132;2024-03-08T03:59:26;100326.28;;;1.27;78.00
81181;BME280;70650;51.408;7.132;2024-03-08T04:01:51;100325.47;;;1.25;77.83
81181;BME280;70650;51.408;7.132;2024-03-08T04:04:16;100328.97;;;1.23;78.06
81181;BME280;70650;51.408;7.132;2024-03-08T04:06:41;100319.50;;;1.17;78.45
81181;BME280;70650;51.408;7.132;2024-03-08T04:09:07;100310.97;;;1.09;78.33
81181;BME280;70650;51.408;7.132;2024-03-08T04:11:33;100317.09;;;1.05;78.71
81181;BME280;70650;51.408;7.132;2024-03-08T04:13:58;100317.94;;;1.07;78.62
81181;BME280;70650;51.408;7.132;2024-03-08T04:16:23;100323.03;;;1.13;78.33
81181;BME280;70650;51.408;7.132;2024-03-08T04:18:49;100324.69;;;1.20;78.34
81181;BME280;70650;51.408;7.132;2024-03-08T04:21:15;100322.03;;;1.22;78.34
81181;BME280;70650;51.408;7.132;2024-03-08T04:23:40;100311.63;;;1.22;78.13
81181;BME280;70650;51.408;7.132;2024-03-08T04:26:06;100318.59;;;1.21;78.21
81181;BME280;70650;51.408;7.132;2024-03-08T04:28:32;100314.28;;;1.20;78.59
81181;BME280;70650;51.408;7.132;2024-03-08T04:30:58;100322.94;;;1.21;78.52
81181;BME280;70650;51.408;7.132;2024-03-08T04:33:26;100312.63;;;1.15;78.42
81181;BME280;70650;51.408;7.132;2024-03-08T04:35:51;100309.06;;;1.19;78.63
81181;BME280;70650;51.408;7.132;2024-03-08T04:38:16;100309.94;;;1.18;78.01
81181;BME280;70650;51.408;7.132;2024-03-08T04:40:41;100309.09;;;1.17;78.20
81181;BME280;70650;51.408;7.132;2024-03-08T04:43:07;100309.94;;;1.19;77.81
81181;BME280;70650;51.408;7.132;2024-03-08T04:45:33;100304.06;;;1.06;78.37
81181;BME280;70650;51.408;7.132;2024-03-08T04:47:59;100305.72;;;1.11;78.24
81181;BME280;70650;51.408;7.132;2024-03-08T04:50:24;100298.81;;;1.10;78.47
81181;BME280;70650;51.408;7.132;2024-03-08T04:52:50;100294.53;;;1.05;78.18
81181;BME280;70650;51.408;7.132;2024-03-08T04:55:15;100298.75;;;1.14;78.61
81181;BME280;70650;51.408;7.132;2024-03-08T04:57:40;100293.72;;;1.02;78.99
81181;BME280;70650;51.408;7.132;2024-03-08T05:00:07;100295.50;;;1.00;79.21
81181;BME280;70650;51.408;7.132;2024-03-08T05:02:39;100296.28;;;1.05;78.84
81181;BME280;70650;51.408;7.132;2024-03-08T05:05:05;100293.81;;;0.96;79.02
81181;BME280;70650;51.408;7.132;2024-03-08T05:07:31;100292.16;;;0.92;79.28
81181;BME280;70650;51.408;7.132;2024-03-08T05:09:58;100289.53;;;0.93;79.37
81181;BME280;70650;51.408;7.132;2024-03-08T05:12:23;100292.59;;;0.61;80.07
81181;BME280;70650;51.408;7.132;2024-03-08T05:14:48;100282.09;;;0.67;80.84
81181;BME280;70650;51.408;7.132;2024-03-08T05:17:15;100286.59;;;0.56;81.00
81181;BME280;70650;51.408;7.132;2024-03-08T05:19:42;100288.06;;;0.75;80.58
81181;BME280;70650;51.408;7.132;2024-03-08T05:22:08;100287.19;;;0.76;80.31
81181;BME280;70650;51.408;7.132;2024-03-08T05:24:34;100278.63;;;0.67;81.07
81181;BME280;70650;51.408;7.132;2024-03-08T05:27:00;100278.63;;;0.68;80.46
81181;BME280;70650;51.408;7.132;2024-03-08T05:29:26;100281.41;;;0.58;80.59
81181;BME280;70650;51.408;7.132;2024-03-08T05:31:52;100278.00;;;0.51;81.93
81181;BME280;70650;51.408;7.132;2024-03-08T05:34:17;100277.81;;;0.65;81.23
81181;BME280;70650;51.408;7.132;2024-03-08T05:36:44;100282.09;;;0.67;80.73
81181;BME280;70650;51.408;7.132;2024-03-08T05:39:13;100279.50;;;0.67;81.03
81181;BME280;70650;51.408;7.132;2024-03-08T05:41:39;100275.00;;;0.80;80.93
81181;BME280;70650;51.408;7.132;2024-03-08T05:44:04;100268.16;;;0.71;80.99
81181;BME280;70650;51.408;7.132;2024-03-08T05:46:30;100277.75;;;0.69;81.26
81181;BME280;70650;51.408;7.132;2024-03-08T05:48:55;100267.44;;;0.62;81.27
81181;BME280;70650;51.408;7.132;2024-03-08T05:51:23;100270.84;;;0.67;81.46
81181;BME280;70650;51.408;7.132;2024-03-08T05:53:49;100268.19;;;0.70;80.50
81181;BME280;70650;51.408;7.132;2024-03-08T05:56:14;100266.84;;;0.43;81.19
81181;BME280;70650;51.408;7.132;2024-03-08T05:58:39;100272.06;;;0.43;81.96
81181;BME280;70650;51.408;7.132;2024-03-08T06:01:04;100264.22;;;0.44;81.55
81181;BME280;70650;51.408;7.132;2024-03-08T06:03:33;100259.72;;;0.56;81.77
81181;BME280;70650;51.408;7.132;2024-03-08T06:05:59;100258.88;;;0.55;81.84
81181;BME280;70650;51.408;7.132;2024-03-08T06:08:24;100256.09;;;0.66;81.36
81181;BME280;70650;51.408;7.132;2024-03-08T06:10:55;100262.41;;;0.49;81.06
81181;BME280;70650;51.408;7.132;2024-03-08T06:13:20;100265.81;;;0.55;81.14
81181;BME280;70650;51.408;7.132;2024-03-08T06:15:45;100269.31;;;0.53;81.42
81181;BME280;70650;51.408;7.132;2024-03-08T06:18:11;100260.69;;;0.51;80.83
81181;BME280;70650;51.408;7.132;2024-03-08T06:20:36;100255.34;;;0.59;81.34
81181;BME280;70650;51.408;7.132;2024-03-08T06:23:02;100261.41;;;0.60;81.41
81181;BME280;70650;51.408;7.132;2024-03-08T06:25:27;100260.50;;;0.64;81.29
81181;BME280;70650;51.408;7.132;2024-03-08T06:27:52;100258.13;;;0.47;81.63
81181;BME280;70650;51.408;7.132;2024-03-08T06:30:18;100261.63;;;0.46;81.77
81181;BME280;70650;51.408;7.132;2024-03-08T06:32:43;100264.31;;;0.40;82.40
81181;BME280;70650;51.408;7.132;2024-03-08T06:35:08;100259.91;;;0.43;83.05
81181;BME280;70650;51.408;7.132;2024-03-08T06:37:35;100260.72;;;0.45;81.89
81181;BME280;70650;51.408;7.132;2024-03-08T06:40:01;100261.47;;;0.55;81.79
81181;BME280;70650;51.408;7.132;2024-03-08T06:42:28;100258.94;;;0.52;82.14
81181;BME280;70650;51.408;7.132;2024-03-08T06:44:54;100263.31;;;0.48;82.81
81181;BME280;70650;51.408;7.132;2024-03-08T06:47:26;100264.97;;;0.54;82.13
81181;BME280;70650;51.408;7.132;2024-03-08T06:49:51;100263.03;;;0.68;82.15
81181;BME280;70650;51.408;7.132;2024-03-08T06:52:17;100259.47;;;0.72;82.08
81181;BME280;70650;51.408;7.132;2024-03-08T06:54:42;100254.28;;;0.72;82.37
81181;BME280;70650;51.408;7.132;2024-03-08T06:57:08;100266.09;;;0.93;81.99
81181;BME280;70650;51.408;7.132;2024-03-08T06:59:35;100265.16;;;0.96;81.44
81181;BME280;70650;51.408;7.132;2024-03-08T07:02:01;100267.59;;;1.08;81.38
81181;BME280;70650;51.408;7.132;2024-03-08T07:04:26;100252.91;;;1.04;80.86
81181;BME280;70650;51.408;7.132;2024-03-08T07:06:57;100255.25;;;1.19;80.31
81181;BME280;70650;51.408;7.132;2024-03-08T07:09:26;100260.28;;;1.28;80.62
81181;BME280;70650;51.408;7.132;2024-03-08T07:11:51;100257.59;;;1.33;80.60
81181;BME280;70650;51.408;7.132;2024-03-08T07:14:22;100264.38;;;1.42;79.57
81181;BME280;70650;51.408;7.132;2024-03-08T07:16:47;100261.72;;;1.45;80.04
81181;BME280;70650;51.408;7.132;2024-03-08T07:19:13;100266.69;;;1.58;79.50
81181;BME280;70650;51.408;7.132;2024-03-08T07:21:38;100264.03;;;1.62;79.04
81181;BME280;70650;51.408;7.132;2024-03-08T07:24:04;100262.13;;;1.70;78.93
81181;BME280;70650;51.408;7.132;2024-03-08T07:26:46;100263.72;;;1.78;78.10
81181;BME280;70650;51.408;7.132;2024-03-08T07:29:17;100257.59;;;1.79;78.70
81181;BME280;70650;51.408;7.132;2024-03-08T07:31:43;100261.78;;;1.86;78.32
81181;BME280;70650;51.408;7.132;2024-03-08T07:34:27;100265.19;;;1.92;78.24
81181;BME280;70650;51.408;7.132;2024-03-08T07:36:52;100252.91;;;1.97;77.27
81181;BME280;70650;51.408;7.132;2024-03-08T07:39:18;100251.09;;;2.00;78.22
81181;BME280;70650;51.408;7.132;2024-03-08T07:41:44;100257.00;;;2.08;77.76
81181;BME280;70650;51.408;7.132;2024-03-08T07:44:09;100244.63;;;2.18;77.57
81181;BME280;70650;51.408;7.132;2024-03-08T07:46:34;100254.63;;;2.39;76.93
81181;BME280;70650;51.408;7.132;2024-03-08T07:49:00;100240.66;;;2.41;77.37
81181;BME280;70650;51.408;7.132;2024-03-08T07:51:25;100250.00;;;2.51;76.87
81181;BME280;70650;51.408;7.132;2024-03-08T07:53:51;100249.44;;;2.36;76.72
81181;BME280;70650;51.408;7.132;2024-03-08T07:56:16;100237.72;;;2.56;77.25
81181;BME280;70650;51.408;7.132;2024-03-08T07:58:43;100242.75;;;2.63;76.79
81181;BME280;70650;51.408;7.132;2024-03-08T08:01:18;100225.19;;;2.70;76.21
81181;BME280;70650;51.408;7.132;2024-03-08T08:03:45;100222.28;;;2.82;75.72
81181;BME280;70650;51.408;7.132;2024-03-08T08:06:10;100220.34;;;2.90;76.23
81181;BME280;70650;51.408;7.132;2024-03-08T08:08:41;100221.84;;;3.01;75.99
81181;BME280;70650;51.408;7.132;2024-03-08T08:11:07;100219.63;;;3.19;75.01
81181;BME280;70650;51.408;7.132;2024-03-08T08:13:34;100215.72;;;3.34;74.06
81181;BME280;70650;51.408;7.132;2024-03-08T08:16:00;100219.81;;;3.44;73.35
81181;BME280;70650;51.408;7.132;2024-03-08T08:18:25;100206.44;;;3.55;73.39
81181;BME280;70650;51.408;7.132;2024-03-08T08:20:51;100203.72;;;3.60;72.62
81181;BME280;70650;51.408;7.132;2024-03-08T08:23:17;100199.94;;;3.70;72.11
81181;BME280;70650;51.408;7.132;2024-03-08T08:25:44;100196.00;;;3.86;72.47
81181;BME280;70650;51.408;7.132;2024-03-08T08:28:10;100190.66;;;3.89;71.46
81181;BME280;70650;51.408;7.132;2024-03-08T08:30:35;100193.94;;;3.97;71.83
81181;BME280;70650;51.408;7.132;2024-03-08T08:33:00;100188.41;;;4.07;70.40
81181;BME280;70650;51.408;7.132;2024-03-08T08:35:26;100178.66;;;4.12;70.36
81181;BME280;70650;51.408;7.132;2024-03-08T08:37:51;100182.53;;;4.28;70.81
81181;BME280;70650;51.408;7.132;2024-03-08T08:40:16;100178.06;;;4.32;70.85
81181;BME280;70650;51.408;7.132;2024-03-08T08:42:42;100176.09;;;4.38;70.03
81181;BME280;70650;51.408;7.132;2024-03-08T08:45:08;100170.63;;;4.46;69.56
81181;BME280;70650;51.408;7.132;2024-03-08T08:47:35;100168.19;;;4.40;68.57
81181;BME280;70650;51.408;7.132;2024-03-08T08:50:01;100166.34;;;4.43;69.73
81181;BME280;70650;51.408;7.132;2024-03-08T08:52:26;100162.47;;;4.55;68.94
81181;BME280;70650;51.408;7.132;2024-03-08T08:54:54;100162.00;;;4.69;68.85
81181;BME280;70650;51.408;7.132;2024-03-08T08:57:19;100154.72;;;4.78;68.53
81181;BME280;70650;51.408;7.132;2024-03-08T08:59:45;100148.63;;;4.78;68.57
81181;BME280;70650;51.408;7.132;2024-03-08T09:02:11;100139.66;;;4.85;68.16
81181;BME280;70650;51.408;7.132;2024-03-08T09:04:36;100140.50;;;4.86;68.06
81181;BME280;70650;51.408;7.132;2024-03-08T09:07:02;100136.19;;;4.85;66.93
81181;BME280;70650;51.408;7.132;2024-03-08T09:09:28;100143.47;;;5.01;67.41
81181;BME280;70650;51.408;7.132;2024-03-08T09:11:54;100135.97;;;5.16;67.16
81181;BME280;70650;51.408;7.132;2024-03-08T09:14:20;100136.59;;;4.97;66.63
81181;BME280;70650;51.408;7.132;2024-03-08T09:16:45;100140.41;;;5.14;67.13
81181;BME280;70650;51.408;7.132;2024-03-08T09:19:12;100125.94;;;5.27;66.55
81181;BME280;70650;51.408;7.132;2024-03-08T09:21:37;100121.25;;;5.37;66.36
81181;BME280;70650;51.408;7.132;2024-03-08T09:24:04;100120.06;;;5.20;66.22
81181;BME280;70650;51.408;7.132;2024-03-08T09:26:31;100129.97;;;5.37;66.44
81181;BME280;70650;51.408;7.132;2024-03-08T09:28:58;100121.25;;;5.60;65.72
81181;BME280;70650;51.408;7.132;2024-03-08T09:31:23;100118.31;;;5.44;65.47
81181;BME280;70650;51.408;7.132;2024-03-08T09:33:49;100126.50;;;5.60;65.54
81181;BME280;70650;51.408;7.132;2024-03-08T09:36:16;100117.91;;;5.56;64.97
81181;BME280;70650;51.408;7.132;2024-03-08T09:38:42;100109.50;;;5.70;64.82
81181;BME280;70650;51.408;7.132;2024-03-08T09:41:08;100104.56;;;5.63;64.32
81181;BME280;70650;51.408;7.132;2024-03-08T09:43:35;100100.53;;;5.76;64.09
81181;BME280;70650;51.408;7.132;2024-03-08T09:46:00;100091.31;;;5.66;63.21
81181;BME280;70650;51.408;7.132;2024-03-08T09:48:26;100094.88;;;5.87;64.44
81181;BME280;70650;51.408;7.132;2024-03-08T09:50:54;100092.38;;;6.07;63.18
81181;BME280;70650;51.408;7.132;2024-03-08T09:53:20;100086.22;;;6.08;64.10
81181;BME280;70650;51.408;7.132;2024-03-08T09:55:47;100079.44;;;6.02;63.77
81181;BME280;70650;51.408;7.132;2024-03-08T09:58:15;100081.38;;;6.19;63.75
81181;BME280;70650;51.408;7.132;2024-03-08T10:00:53;100078.41;;;6.49;62.48
81181;BME280;70650;51.408;7.132;2024-03-08T10:03:21;100064.69;;;6.62;62.34
81181;BME280;70650;51.408;7.132;2024-03-08T10:05:47;100062.50;;;6.52;61.82
81181;BME280;70650;51.408;7.132;2024-03-08T10:08:14;100068.84;;;6.48;62.96
81181;BME280;70650;51.408;7.132;2024-03-08T10:10:39;100059.00;;;6.53;62.12
81181;BME280;70650;51.408;7.132;2024-03-08T10:13:06;100058.88;;;6.34;61.45
81181;BME280;70650;51.408;7.132;2024-03-08T10:15:31;100048.88;;;6.44;62.26
81181;BME280;70650;51.408;7.132;2024-03-08T10:17:58;100058.78;;;6.37;61.96
81181;BME280;70650;51.408;7.132;2024-03-08T10:20:24;100055.81;;;6.85;64.77
81181;BME280;70650;51.408;7.132;2024-03-08T10:22:49;100049.50;;;7.10;62.75
81181;BME280;70650;51.408;7.132;2024-03-08T10:25:15;100048.31;;;7.17;60.50
81181;BME280;70650;51.408;7.132;2024-03-08T10:27:40;100043.97;;;7.16;60.87
81181;BME280;70650;51.408;7.132;2024-03-08T10:30:12;100043.88;;;7.38;61.86
81181;BME280;70650;51.408;7.132;2024-03-08T10:32:39;100033.47;;;7.35;60.83
81181;BME280;70650;51.408;7.132;2024-03-08T10:35:09;100030.63;;;7.21;61.08
81181;BME280;70650;51.408;7.132;2024-03-08T10:37:50;100023.50;;;7.23;60.91
81181;BME280;70650;51.408;7.132;2024-03-08T10:40:24;100017.75;;;7.52;60.96
81181;BME280;70650;51.408;7.132;2024-03-08T10:42:53;100025.91;;;7.84;61.29
81181;BME280;70650;51.408;7.132;2024-03-08T10:45:37;100021.75;;;7.97;59.81
81181;BME280;70650;51.408;7.132;2024-03-08T10:50:53;100003.75;;;7.88;58.47
81181;BME280;70650;51.408;7.132;2024-03-08T10:53:19;100006.91;;;8.13;59.77
81181;BME280;70650;51.408;7.132;2024-03-08T10:55:46;100009.81;;;8.78;57.12
81181;BME280;70650;51.408;7.132;2024-03-08T10:58:12;99996.94;;;8.72;56.96
81181;BME280;70650;51.408;7.132;2024-03-08T11:00:37;99997.63;;;8.93;57.50
81181;BME280;70650;51.408;7.132;2024-03-08T11:03:04;99986.97;;;8.94;55.59
81181;BME280;70650;51.408;7.132;2024-03-08T11:05:40;99988.50;;;8.65;57.19
81181;BME280;70650;51.408;7.132;2024-03-08T11:10:52;99978.78;;;8.83;57.87
81181;BME280;70650;51.408;7.132;2024-03-08T11:13:39;99976.06;;;8.85;57.11
81181;BME280;70650;51.408;7.132;2024-03-08T11:18:34;99973.78;;;9.43;54.68
81181;BME280;70650;51.408;7.132;2024-03-08T11:21:03;99959.63;;;9.28;57.66
81181;BME280;70650;51.408;7.132;2024-03-08T11:23:32;99957.84;;;9.29;56.67
81181;BME280;70650;51.408;7.132;2024-03-08T11:25:59;99962.19;;;9.77;56.43
81181;BME280;70650;51.408;7.132;2024-03-08T11:28:24;99952.75;;;9.42;51.75
81181;BME280;70650;51.408;7.132;2024-03-08T11:33:30;99938.28;;;9.65;51.41
81181;BME280;70650;51.408;7.132;2024-03-08T11:36:14;99935.22;;;9.87;51.08
81181;BME280;70650;51.408;7.132;2024-03-08T11:38:52;99937.47;;;10.24;49.72
81181;BME280;70650;51.408;7.132;2024-03-08T11:41:21;99926.28;;;10.92;48.75
81181;BME280;70650;51.408;7.132;2024-03-08T11:43:47;99924.94;;;10.42;53.93
81181;BME280;70650;51.408;7.132;2024-03-08T11:46:14;99922.22;;;9.83;53.45
81181;BME280;70650;51.408;7.132;2024-03-08T11:48:44;99909.63;;;10.03;53.25
81181;BME280;70650;51.408;7.132;2024-03-08T11:51:12;99910.72;;;10.45;52.82
81181;BME280;70650;51.408;7.132;2024-03-08T11:53:39;99910.34;;;10.65;49.67
81181;BME280;70650;51.408;7.132;2024-03-08T11:56:14;99905.38;;;11.30;46.36
81181;BME280;70650;51.408;7.132;2024-03-08T11:58:40;99898.88;;;11.07;46.80
81181;BME280;70650;51.408;7.132;2024-03-08T12:01:06;99889.06;;;11.09;46.64
81181;BME280;70650;51.408;7.132;2024-03-08T12:03:33;99890.25;;;11.59;46.29
81181;BME280;70650;51.408;7.132;2024-03-08T12:05:59;99883.44;;;10.73;49.44
81181;BME280;70650;51.408;7.132;2024-03-08T12:08:25;99874.84;;;10.69;50.91
81181;BME280;70650;51.408;7.132;2024-03-08T12:10:53;99871.59;;;10.93;50.78
81181;BME280;70650;51.408;7.132;2024-03-08T12:13:27;99880.28;;;10.95;47.84
81181;BME280;70650;51.408;7.132;2024-03-08T12:15:57;99869.28;;;10.74;46.77
81181;BME280;70650;51.408;7.132;2024-03-08T12:18:24;99872.03;;;11.67;45.35
81181;BME280;70650;51.408;7.132;2024-03-08T12:20:50;99858.53;;;11.18;47.18
81181;BME280;70650;51.408;7.132;2024-03-08T12:23:15;99839.34;;;10.45;46.30
81181;BME280;70650;51.408;7.132;2024-03-08T12:25:42;99842.53;;;10.64;47.10
81181;BME280;70650;51.408;7.132;2024-03-08T12:28:08;99835.88;;;10.44;47.41
81181;BME280;70650;51.408;7.132;2024-03-08T12:30:48;99847.63;;;11.23;45.87
81181;BME280;70650;51.408;7.132;2024-03-08T12:33:14;99833.44;;;10.82;45.56
81181;BME280;70650;51.408;7.132;2024-03-08T12:35:39;99824.72;;;10.95;46.08
81181;BME280;70650;51.408;7.132;2024-03-08T12:38:06;99806.84;;;10.71;46.35
81181;BME280;70650;51.408;7.132;2024-03-08T12:40:33;99820.44;;;10.65;47.69
81181;BME280;70650;51.408;7.132;2024-03-08T12:43:00;99810.97;;;10.90;47.01
81181;BME280;70650;51.408;7.132;2024-03-08T12:45:26;99811.81;;;11.17;46.47
81181;BME280;70650;51.408;7.132;2024-03-08T12:47:52;99811.09;;;12.07;44.29
81181;BME280;70650;51.408;7.132;2024-03-08T12:50:21;99807.59;;;12.45;42.72
81181;BME280;70650;51.408;7.132;2024-03-08T12:52:47;99808.69;;;11.91;44.37
81181;BME280;70650;51.408;7.132;2024-03-08T12:55:13;99808.09;;;12.63;43.96
81181;BME280;70650;51.408;7.132;2024-03-08T12:57:39;99796.56;;;12.51;42.15
81181;BME280;70650;51.408;7.132;2024-03-08T13:00:05;99797.56;;;13.59;40.15
81181;BME280;70650;51.408;7.132;2024-03-08T13:02:31;99794.56;;;13.28;42.06
81181;BME280;70650;51.408;7.132;2024-03-08T13:05:00;99786.22;;;12.72;41.54
81181;BME280;70650;51.408;7.132;2024-03-08T13:07:26;99784.50;;;11.44;43.21